Time;durP1;ratioP1;P1;durP2;ratioP2;P2;SDS_P1;SDS_P2;PMS_P1;PMS_P2;Temp;Humidity;BMP_temperature;BMP_pressure;BME280_temperature;BME280_humidity;BME280_pressure;Samples;Min_cycle;Max_cycle;Signal;HPM_P1;HPM_P2
2023/05/15 00:02:24;;;;;;;5.13;4.73;;;19.00;52.60;;;;;;4991622;28;20219;-49
2023/05/15 00:04:50;;;;;;;5.43;4.93;;;19.00;52.50;;;;;;4989973;28;20946;-51
2023/05/15 00:07:15;;;;;;;5.97;5.07;;;19.00;52.60;;;;;;4992750;28;20202;-49
2023/05/15 00:09:41;;;;;;;6.20;5.60;;;18.90;52.90;;;;;;4992123;28;20248;-48
2023/05/15 00:12:07;;;;;;;6.27;5.67;;;18.90;53.40;;;;;;4991848;28;20292;-50
2023/05/15 00:14:32;;;;;;;8.17;5.67;;;18.90;53.50;;;;;;4998220;28;20198;-51
2023/05/15 00:16:58;;;;;;;6.80;6.10;;;18.90;53.60;;;;;;4999401;28;20686;-53
2023/05/15 00:19:23;;;;;;;6.77;5.60;;;18.90;53.70;;;;;;4994236;28;20202;-50
2023/05/15 00:21:49;;;;;;;6.00;5.40;;;18.90;53.80;;;;;;4993992;28;20222;-51
2023/05/15 00:24:15;;;;;;;6.20;5.30;;;18.90;53.70;;;;;;4994411;28;20199;-52
2023/05/15 00:26:40;;;;;;;6.40;5.80;;;18.80;53.60;;;;;;4994170;28;20191;-49
2023/05/15 00:29:06;;;;;;;5.43;4.93;;;18.80;54.30;;;;;;4992280;28;20758;-52
2023/05/15 00:31:32;;;;;;;10.70;6.03;;;18.80;53.80;;;;;;4990028;28;20285;-53
2023/05/15 00:33:58;;;;;;;5.97;5.20;;;18.70;54.40;;;;;;4991850;28;20191;-52
2023/05/15 00:36:24;;;;;;;6.10;5.50;;;18.70;53.90;;;;;;4992955;28;20539;-48
2023/05/15 00:38:50;;;;;;;6.20;5.60;;;18.60;54.00;;;;;;4990924;28;20190;-52
2023/05/15 00:41:17;;;;;;;5.70;5.20;;;18.60;54.00;;;;;;4989025;28;20459;-53
2023/05/15 00:43:44;;;;;;;6.13;5.57;;;18.60;54.20;;;;;;4980474;28;22020;-52
2023/05/15 00:46:12;;;;;;;6.70;5.43;;;18.60;54.60;;;;;;4988127;28;20560;-52
2023/05/15 00:48:38;;;;;;;6.63;4.93;;;18.70;54.50;;;;;;4985540;28;20442;-53
2023/05/15 00:51:04;;;;;;;5.60;5.10;;;18.60;54.70;;;;;;4989633;28;20817;-52
2023/05/15 00:53:29;;;;;;;5.83;5.10;;;18.60;55.30;;;;;;4985204;28;20450;-49
2023/05/15 00:55:57;;;;;;;5.43;4.97;;;18.60;55.20;;;;;;4983432;28;20195;-52
2023/05/15 00:58:25;;;;;;;5.60;5.10;;;18.60;55.50;;;;;;4983363;28;20246;-51
2023/05/15 01:00:52;;;;;;;5.37;4.97;;;18.70;55.50;;;;;;4989424;28;20806;-52
2023/05/15 01:03:18;;;;;;;4.77;4.37;;;18.70;55.20;;;;;;4988888;28;20546;-51
2023/05/15 01:05:44;;;;;;;5.67;5.17;;;18.70;55.20;;;;;;4985638;28;20511;-53
2023/05/15 01:08:22;;;;;;;5.57;5.07;;;18.80;55.10;;;;;;4986510;28;21003;-49
2023/05/15 01:10:49;;;;;;;5.47;5.07;;;18.80;54.80;;;;;;4990014;28;20248;-52
2023/05/15 01:13:15;;;;;;;5.90;5.40;;;18.80;54.70;;;;;;4988994;28;21207;-51
2023/05/15 01:15:41;;;;;;;10.13;5.70;;;18.80;54.90;;;;;;4983660;28;20453;-52
2023/05/15 01:18:06;;;;;;;6.10;5.60;;;18.80;55.20;;;;;;4989130;28;20229;-52
2023/05/15 01:20:59;;;;;;;5.43;5.03;;;18.80;55.10;;;;;;4990919;28;20234;-53
2023/05/15 01:24:01;;;;;;;5.80;5.30;;;18.90;55.30;;;;;;4978087;28;20226;-49
2023/05/15 01:26:51;;;;;;;4.70;4.30;;;18.90;54.90;;;;;;4982252;28;20455;-50
2023/05/15 01:29:29;;;;;;;5.70;5.20;;;19.00;54.90;;;;;;4986562;28;20477;-52
2023/05/15 01:32:04;;;;;;;5.30;4.90;;;19.00;54.70;;;;;;4981422;28;20453;-51
2023/05/15 01:35:00;;;;;;;6.10;5.50;;;19.00;54.50;;;;;;4989607;28;20445;-52
2023/05/15 01:37:28;;;;;;;5.23;4.73;;;19.00;54.40;;;;;;4980221;28;20504;-51
2023/05/15 01:40:01;;;;;;;7.07;5.20;;;19.00;54.40;;;;;;4989074;28;20461;-53
2023/05/15 01:42:32;;;;;;;5.97;5.37;;;19.00;54.40;;;;;;4983964;28;20484;-52
2023/05/15 01:45:04;;;;;;;6.43;5.83;;;19.00;54.40;;;;;;4975421;28;20445;-53
2023/05/15 01:47:47;;;;;;;5.87;5.30;;;19.00;54.40;;;;;;4981124;28;20859;-52
2023/05/15 01:50:15;;;;;;;6.40;5.80;;;19.00;54.40;;;;;;4988743;28;20449;-53
2023/05/15 01:52:45;;;;;;;5.47;5.07;;;19.00;54.30;;;;;;4987933;28;20454;-53
2023/05/15 01:55:13;;;;;;;5.47;4.97;;;19.00;54.40;;;;;;4988038;28;20445;-54
2023/05/15 01:57:41;;;;;;;6.07;5.57;;;19.00;54.40;;;;;;4980960;28;20445;-53
2023/05/15 02:00:09;;;;;;;6.00;5.20;;;19.00;54.40;;;;;;4989238;28;20445;-52
2023/05/15 02:02:35;;;;;;;5.70;5.20;;;19.00;54.60;;;;;;4988665;28;20485;-53
2023/05/15 02:05:01;;;;;;;6.03;5.53;;;19.00;54.50;;;;;;4995457;28;20453;-49
2023/05/15 02:07:27;;;;;;;6.23;5.63;;;19.00;54.50;;;;;;4989195;28;20798;-52
2023/05/15 02:09:54;;;;;;;5.63;5.13;;;19.00;54.40;;;;;;4987319;28;20437;-53
2023/05/15 02:12:20;;;;;;;5.83;5.33;;;19.00;54.10;;;;;;4989401;28;20488;-49
2023/05/15 02:14:49;;;;;;;5.83;5.33;;;19.00;54.20;;;;;;4989483;28;20775;-51
2023/05/15 02:17:15;;;;;;;5.20;4.70;;;18.90;54.30;;;;;;4987146;28;20449;-51
2023/05/15 02:19:40;;;;;;;7.57;5.73;;;18.90;54.50;;;;;;4988142;28;20945;-49
2023/05/15 02:22:06;;;;;;;6.10;5.50;;;18.90;54.50;;;;;;4989533;28;20528;-52
2023/05/15 02:24:31;;;;;;;6.40;5.70;;;18.90;54.40;;;;;;4984392;28;20252;-50
2023/05/15 02:27:16;;;;;;;5.50;5.00;;;18.90;54.70;;;;;;4989648;28;20190;-48
2023/05/15 02:30:13;;;;;;;5.67;5.17;;;19.00;55.00;;;;;;4990786;28;20194;-49
2023/05/15 02:32:53;;;;;;;6.37;5.67;;;19.00;54.70;;;;;;4991543;28;20884;-48
2023/05/15 02:35:41;;;;;;;6.40;5.80;;;19.00;54.60;;;;;;4991141;28;20449;-50
2023/05/15 02:38:11;;;;;;;5.90;5.40;;;19.00;54.70;;;;;;4990545;28;20457;-48
2023/05/15 02:40:39;;;;;;;6.20;5.67;;;19.10;54.70;;;;;;4989916;28;20468;-48
2023/05/15 02:43:06;;;;;;;5.90;5.40;;;19.10;54.60;;;;;;4987457;28;20489;-48
2023/05/15 02:45:32;;;;;;;6.20;4.97;;;19.10;54.60;;;;;;4990003;28;20454;-48
2023/05/15 02:47:59;;;;;;;5.60;5.10;;;19.10;54.40;;;;;;4991051;28;20441;-49
2023/05/15 02:50:25;;;;;;;6.27;5.67;;;19.20;54.50;;;;;;4989234;28;20450;-48
2023/05/15 02:52:50;;;;;;;4.97;4.57;;;19.20;54.70;;;;;;4989038;28;20456;-48
2023/05/15 02:55:16;;;;;;;5.90;4.90;;;19.30;54.40;;;;;;4985464;28;20801;-49
2023/05/15 02:57:41;;;;;;;6.40;5.80;;;19.30;54.10;;;;;;4983663;28;20196;-49
2023/05/15 03:00:10;;;;;;;6.40;5.80;;;19.30;54.10;;;;;;4987798;28;20191;-48
2023/05/15 03:02:36;;;;;;;6.17;5.57;;;19.20;54.20;;;;;;4985808;28;20226;-48
2023/05/15 03:05:02;;;;;;;6.27;5.77;;;19.20;54.10;;;;;;4989406;28;20456;-49
2023/05/15 03:07:27;;;;;;;5.33;4.90;;;19.20;54.00;;;;;;4987085;28;20262;-48
2023/05/15 03:09:53;;;;;;;12.57;6.43;;;19.10;54.10;;;;;;4987373;28;20794;-48
2023/05/15 03:12:19;;;;;;;6.00;5.50;;;19.10;54.30;;;;;;4988631;28;20241;-48
2023/05/15 03:14:44;;;;;;;6.07;5.57;;;19.10;54.60;;;;;;4988543;28;20198;-50
2023/05/15 03:17:10;;;;;;;6.40;5.80;;;19.10;54.60;;;;;;4990514;28;20615;-48
2023/05/15 03:19:35;;;;;;;6.07;5.50;;;19.10;54.60;;;;;;4979744;28;20198;-48
2023/05/15 03:22:01;;;;;;;7.70;5.40;;;19.20;54.60;;;;;;4986882;28;20238;-48
2023/05/15 03:24:26;;;;;;;5.70;5.20;;;19.20;54.60;;;;;;4987500;28;20193;-48
2023/05/15 03:26:52;;;;;;;4.93;4.53;;;19.20;54.40;;;;;;4985482;28;20226;-48
2023/05/15 03:29:17;;;;;;;8.83;5.67;;;19.20;54.30;;;;;;4983103;28;20713;-48
2023/05/15 03:31:43;;;;;;;6.17;5.67;;;19.20;54.20;;;;;;4982122;28;20670;-49
2023/05/15 03:34:08;;;;;;;6.13;5.63;;;19.20;54.30;;;;;;4987493;28;20199;-48
2023/05/15 03:36:34;;;;;;;7.23;5.23;;;19.20;54.20;;;;;;4983092;28;20214;-49
2023/05/15 03:38:59;;;;;;;6.10;5.50;;;19.20;54.40;;;;;;4980575;28;20199;-48
2023/05/15 03:41:26;;;;;;;7.07;6.37;;;19.30;54.50;;;;;;4982510;28;20194;-48
2023/05/15 03:43:52;;;;;;;7.10;6.40;;;19.30;54.40;;;;;;4983140;28;20225;-49
2023/05/15 03:46:17;;;;;;;7.10;6.40;;;19.30;54.30;;;;;;4984079;28;20438;-51
2023/05/15 03:48:43;;;;;;;6.20;5.63;;;19.30;54.40;;;;;;4982315;28;20186;-48
2023/05/15 03:51:08;;;;;;;6.60;6.00;;;19.30;54.30;;;;;;4987513;28;20210;-48
2023/05/15 03:53:34;;;;;;;7.63;6.40;;;19.30;54.30;;;;;;4977974;28;20199;-48
2023/05/15 03:56:00;;;;;;;8.57;6.40;;;19.30;54.20;;;;;;4984598;28;20210;-48
2023/05/15 03:58:25;;;;;;;8.77;5.93;;;19.20;54.20;;;;;;4983673;28;20191;-49
2023/05/15 04:00:51;;;;;;;7.47;6.77;;;19.20;54.40;;;;;;4984211;28;20191;-48
2023/05/15 04:03:17;;;;;;;6.93;6.33;;;19.20;54.60;;;;;;4989057;28;20258;-48
2023/05/15 04:05:43;;;;;;;6.80;6.20;;;19.20;54.90;;;;;;4988338;28;20568;-48
2023/05/15 04:08:09;;;;;;;7.00;6.30;;;19.20;54.80;;;;;;4988993;28;20476;-50
2023/05/15 04:10:35;;;;;;;7.70;7.00;;;19.20;54.70;;;;;;4985776;28;20198;-48
2023/05/15 04:13:00;;;;;;;7.50;6.80;;;19.20;54.70;;;;;;4988292;28;20477;-48
2023/05/15 04:15:27;;;;;;;6.30;5.70;;;19.20;54.70;;;;;;4991288;28;20277;-49
2023/05/15 04:17:53;;;;;;;7.23;6.53;;;19.20;54.80;;;;;;4989844;28;20199;-49
2023/05/15 04:20:21;;;;;;;6.37;5.80;;;19.30;54.90;;;;;;4992092;28;20437;-48
2023/05/15 04:22:47;;;;;;;6.60;6.00;;;19.40;54.80;;;;;;4994262;28;20493;-49
2023/05/15 04:25:14;;;;;;;5.77;5.27;;;19.40;54.60;;;;;;4992297;28;20976;-50
2023/05/15 04:27:41;;;;;;;6.37;5.40;;;19.40;54.60;;;;;;4994099;28;20484;-49
2023/05/15 04:30:08;;;;;;;6.33;5.77;;;19.50;54.70;;;;;;4994440;28;20520;-50
2023/05/15 04:32:34;;;;;;;6.90;6.30;;;19.50;54.50;;;;;;4991582;28;20426;-51
2023/05/15 04:35:08;;;;;;;6.43;5.83;;;19.50;54.50;;;;;;4998789;28;20453;-47
2023/05/15 04:37:37;;;;;;;6.17;5.67;;;19.50;54.80;;;;;;4990850;28;20948;-48
2023/05/15 04:40:05;;;;;;;6.23;5.73;;;19.60;54.70;;;;;;4994162;28;20452;-48
2023/05/15 04:42:30;;;;;;;6.37;5.70;;;19.70;54.70;;;;;;4994369;28;20525;-49
2023/05/15 04:44:56;;;;;;;6.00;5.40;;;19.70;54.30;;;;;;4983502;28;20988;-49
2023/05/15 04:47:22;;;;;;;6.70;6.00;;;19.80;54.30;;;;;;4986976;28;20208;-51
2023/05/15 04:49:48;;;;;;;8.70;5.53;;;19.80;54.40;;;;;;4984722;28;20213;-50
2023/05/15 04:52:14;;;;;;;7.73;6.37;;;19.90;54.20;;;;;;4985461;28;20198;-49
2023/05/15 04:54:40;;;;;;;6.13;5.47;;;20.00;54.10;;;;;;4990100;28;20457;-50
2023/05/15 04:57:06;;;;;;;6.70;6.00;;;20.00;54.10;;;;;;4988681;28;20202;-50
2023/05/15 04:59:32;;;;;;;6.80;6.20;;;20.00;54.00;;;;;;4987576;28;20438;-49
2023/05/15 05:01:58;;;;;;;7.30;6.60;;;20.10;54.00;;;;;;4988092;28;20217;-49
2023/05/15 05:04:23;;;;;;;5.90;5.10;;;20.10;53.90;;;;;;4990558;28;20677;-48
2023/05/15 05:06:49;;;;;;;6.13;5.53;;;20.20;53.90;;;;;;4987688;28;20205;-48
2023/05/15 05:09:15;;;;;;;6.73;6.13;;;20.00;53.60;;;;;;4988750;28;20194;-50
2023/05/15 05:11:43;;;;;;;9.03;8.20;;;20.00;54.00;;;;;;4985955;28;20210;-48
2023/05/15 05:14:10;;;;;;;8.70;7.63;;;20.00;53.90;;;;;;4996017;28;20268;-49
2023/05/15 05:16:36;;;;;;;8.67;7.37;;;20.00;54.00;;;;;;4987670;28;20449;-50
2023/05/15 05:19:02;;;;;;;9.33;7.10;;;20.00;53.70;;;;;;4991559;28;20442;-48
2023/05/15 05:21:27;;;;;;;7.57;6.87;;;20.10;53.60;;;;;;4985826;28;20572;-49
2023/05/15 05:23:53;;;;;;;7.80;6.97;;;20.10;53.60;;;;;;4987432;28;20195;-49
2023/05/15 05:26:18;;;;;;;6.87;6.17;;;20.10;53.50;;;;;;4987102;28;20194;-49
2023/05/15 05:28:44;;;;;;;6.40;5.90;;;20.00;53.50;;;;;;4984537;28;20615;-49
2023/05/15 05:31:09;;;;;;;7.73;6.87;;;20.00;53.50;;;;;;4984353;28;20222;-52
2023/05/15 05:33:35;;;;;;;6.77;5.93;;;20.00;53.30;;;;;;4984598;28;20199;-48
2023/05/15 05:36:01;;;;;;;6.40;5.90;;;20.00;53.40;;;;;;4975205;28;20191;-50
2023/05/15 05:38:26;;;;;;;6.50;6.00;;;20.00;53.60;;;;;;4987954;28;20729;-49
2023/05/15 05:40:52;;;;;;;6.33;5.40;;;20.00;53.60;;;;;;4980969;28;20203;-48
2023/05/15 05:43:19;;;;;;;7.03;6.23;;;19.90;53.40;;;;;;4984929;28;20265;-52
2023/05/15 05:45:45;;;;;;;6.63;6.00;;;19.90;53.50;;;;;;4981916;28;21211;-48
2023/05/15 05:48:12;;;;;;;7.13;6.27;;;20.00;53.30;;;;;;4986106;28;20521;-48
2023/05/15 05:50:38;;;;;;;10.40;6.20;;;20.00;53.30;;;;;;4985527;28;20187;-48
2023/05/15 05:53:03;;;;;;;7.97;7.23;;;20.00;53.30;;;;;;4985470;28;20508;-48
2023/05/15 05:55:29;;;;;;;5.93;5.43;;;20.00;53.30;;;;;;4987852;28;20245;-49
2023/05/15 05:57:54;;;;;;;7.30;6.50;;;20.00;53.40;;;;;;4991551;28;20198;-48
2023/05/15 06:00:20;;;;;;;9.70;7.67;;;20.00;53.50;;;;;;4988717;28;20608;-51
2023/05/15 06:02:46;;;;;;;7.33;6.60;;;20.00;53.50;;;;;;4990636;28;20309;-48
2023/05/15 06:05:12;;;;;;;7.20;6.50;;;20.00;53.70;;;;;;4986663;28;20202;-48
2023/05/15 06:07:38;;;;;;;8.20;7.50;;;20.10;53.90;;;;;;4987609;28;20218;-49
2023/05/15 06:10:04;;;;;;;7.77;6.63;;;20.10;54.10;;;;;;4988990;28;20222;-47
2023/05/15 06:12:29;;;;;;;7.43;6.80;;;20.10;54.00;;;;;;4981443;28;20229;-47
2023/05/15 06:14:55;;;;;;;8.83;7.57;;;20.10;54.30;;;;;;4991087;28;20849;-48
2023/05/15 06:17:20;;;;;;;7.13;6.43;;;20.20;54.30;;;;;;4985571;28;20270;-47
2023/05/15 06:19:46;;;;;;;7.70;6.90;;;20.30;54.30;;;;;;4988209;28;20194;-47
2023/05/15 06:22:11;;;;;;;7.37;6.77;;;20.30;54.40;;;;;;4989455;28;20273;-48
2023/05/15 06:24:37;;;;;;;7.83;7.13;;;20.40;54.50;;;;;;4990486;28;20186;-47
2023/05/15 06:27:03;;;;;;;8.10;7.50;;;20.30;54.30;;;;;;4992192;28;20199;-49
2023/05/15 06:29:28;;;;;;;7.17;6.57;;;20.30;54.50;;;;;;4992355;28;20194;-47
2023/05/15 06:31:54;;;;;;;6.97;6.37;;;20.20;54.60;;;;;;5003843;28;20569;-47
2023/05/15 06:34:19;;;;;;;7.20;6.60;;;20.30;54.70;;;;;;4994721;28;20298;-49
2023/05/15 06:36:45;;;;;;;7.33;6.70;;;20.30;55.10;;;;;;5009311;28;20555;-48
2023/05/15 06:39:10;;;;;;;7.80;7.17;;;20.40;54.60;;;;;;5011359;28;20198;-48
2023/05/15 06:41:37;;;;;;;7.33;6.73;;;20.50;54.30;;;;;;5010872;28;20225;-47
2023/05/15 06:44:03;;;;;;;8.00;7.30;;;20.50;54.40;;;;;;5003117;28;20212;-49
2023/05/15 06:46:29;;;;;;;13.87;7.93;;;20.50;54.10;;;;;;4991557;28;20933;-47
2023/05/15 06:48:56;;;;;;;7.43;6.67;;;20.70;53.90;;;;;;4992040;28;20484;-47
2023/05/15 06:51:21;;;;;;;6.90;6.20;;;20.60;53.80;;;;;;4991526;28;20198;-47
2023/05/15 06:53:47;;;;;;;6.77;6.27;;;20.60;54.10;;;;;;4987261;28;20429;-47
2023/05/15 06:56:12;;;;;;;6.60;6.00;;;20.70;54.20;;;;;;5008845;28;20217;-49
2023/05/15 06:58:38;;;;;;;6.97;6.37;;;20.70;53.70;;;;;;5005711;28;20268;-48
2023/05/15 07:01:05;;;;;;;6.50;5.90;;;20.80;53.20;;;;;;4989669;28;20260;-48
2023/05/15 07:03:31;;;;;;;7.10;6.50;;;20.90;53.10;;;;;;4991420;28;20245;-47
2023/05/15 07:05:56;;;;;;;7.87;7.00;;;21.00;53.00;;;;;;5000754;28;20442;-48
2023/05/15 07:08:22;;;;;;;6.80;6.20;;;21.10;52.80;;;;;;4987767;28;20252;-49
2023/05/15 07:10:48;;;;;;;5.80;5.30;;;21.00;53.10;;;;;;4990260;28;20203;-50
2023/05/15 07:13:19;;;;;;;7.10;6.50;;;21.10;52.80;;;;;;4990109;28;20370;-48
2023/05/15 07:15:45;;;;;;;6.80;6.17;;;21.10;52.20;;;;;;4986793;28;20195;-47
2023/05/15 07:18:11;;;;;;;6.60;6.00;;;21.00;52.30;;;;;;4988469;28;20437;-49
2023/05/15 07:20:36;;;;;;;5.97;5.47;;;21.10;52.20;;;;;;4990375;28;20444;-47
2023/05/15 07:23:02;;;;;;;6.53;5.80;;;21.20;52.40;;;;;;4987351;28;20234;-48
2023/05/15 07:25:28;;;;;;;6.70;5.60;;;21.40;52.00;;;;;;4989191;28;20387;-49
2023/05/15 07:27:54;;;;;;;5.80;5.30;;;21.50;51.00;;;;;;4979443;28;20207;-53
2023/05/15 07:30:20;;;;;;;5.90;5.40;;;21.40;51.20;;;;;;4979352;28;20195;-50
2023/05/15 07:32:45;;;;;;;11.00;5.50;;;21.60;51.20;;;;;;4985045;28;20199;-48
2023/05/15 07:35:11;;;;;;;7.53;6.23;;;21.50;51.00;;;;;;4986894;28;20529;-48
2023/05/15 07:37:37;;;;;;;5.83;5.43;;;21.40;50.60;;;;;;4982384;28;20329;-49
2023/05/15 07:40:03;;;;;;;5.87;4.83;;;21.10;51.40;;;;;;4994190;28;20669;-49
2023/05/15 07:42:29;;;;;;;6.00;5.50;;;21.40;51.40;;;;;;4985546;28;20576;-51
2023/05/15 07:44:54;;;;;;;6.67;5.93;;;21.70;51.40;;;;;;4983266;28;20556;-53
2023/05/15 07:47:20;;;;;;;7.63;6.23;;;21.90;50.90;;;;;;4985236;28;20272;-50
2023/05/15 07:49:46;;;;;;;6.40;5.80;;;22.10;50.80;;;;;;4987677;28;20247;-49
2023/05/15 07:52:11;;;;;;;9.33;5.30;;;22.30;50.30;;;;;;4987052;28;20203;-49
2023/05/15 07:54:38;;;;;;;5.80;5.30;;;22.50;49.90;;;;;;4991559;28;20615;-49
2023/05/15 07:57:04;;;;;;;5.90;5.40;;;22.50;49.70;;;;;;4990928;28;20198;-49
2023/05/15 07:59:30;;;;;;;5.30;4.80;;;22.60;49.40;;;;;;4991299;28;20434;-49
2023/05/15 08:01:55;;;;;;;6.80;5.23;;;22.60;49.10;;;;;;4992537;28;20485;-49
2023/05/15 08:04:21;;;;;;;6.53;6.03;;;22.80;49.20;;;;;;4992060;28;20186;-50
2023/05/15 08:06:46;;;;;;;7.73;5.20;;;22.60;48.80;;;;;;4988102;28;21444;-49
2023/05/15 08:09:12;;;;;;;5.83;5.37;;;22.50;48.80;;;;;;4987292;28;20285;-49
2023/05/15 08:11:37;;;;;;;5.10;4.70;;;22.60;48.30;;;;;;4991616;28;20193;-49
2023/05/15 08:14:03;;;;;;;5.00;4.50;;;22.60;48.50;;;;;;4987035;28;20238;-48
2023/05/15 08:16:29;;;;;;;5.47;4.90;;;22.70;49.00;;;;;;4987091;28;20229;-50
2023/05/15 08:18:59;;;;;;;6.03;5.50;;;22.70;48.90;;;;;;4986838;28;20198;-49
2023/05/15 08:21:26;;;;;;;6.40;5.23;;;22.70;48.50;;;;;;4988791;28;20252;-49
2023/05/15 08:23:51;;;;;;;4.90;4.40;;;22.80;48.80;;;;;;4984171;28;20457;-49
2023/05/15 08:26:17;;;;;;;5.30;4.73;;;23.00;49.30;;;;;;4989986;28;21111;-49
2023/05/15 08:28:43;;;;;;;5.67;5.17;;;23.30;49.10;;;;;;4992401;28;20285;-48
2023/05/15 08:31:08;;;;;;;5.20;4.80;;;23.50;49.20;;;;;;4991486;28;20209;-49
2023/05/15 08:33:34;;;;;;;7.33;3.80;;;23.70;48.80;;;;;;4992336;28;20190;-52
2023/05/15 08:36:00;;;;;;;5.17;4.77;;;23.90;47.90;;;;;;4994406;28;20205;-53
2023/05/15 08:38:25;;;;;;;7.03;4.37;;;24.00;46.90;;;;;;4992184;28;20264;-53
2023/05/15 08:40:53;;;;;;;6.77;4.43;;;24.10;46.70;;;;;;4994042;28;20266;-52
2023/05/15 08:43:21;;;;;;;5.40;5.00;;;24.20;45.60;;;;;;4992184;28;20229;-52
2023/05/15 08:45:48;;;;;;;5.00;4.57;;;24.30;45.80;;;;;;4994622;28;20450;-53
2023/05/15 08:48:18;;;;;;;4.70;4.20;;;24.50;45.60;;;;;;4998832;28;20941;-53
2023/05/15 08:50:43;;;;;;;4.77;4.47;;;24.70;46.80;;;;;;4990050;28;20951;-53
2023/05/15 08:53:13;;;;;;;4.47;4.17;;;24.90;46.50;;;;;;4988783;28;20449;-53
2023/05/15 08:55:40;;;;;;;4.63;4.20;;;25.20;45.30;;;;;;4990577;28;20221;-53
2023/05/15 08:58:06;;;;;;;5.03;4.63;;;25.40;45.30;;;;;;4978005;28;20474;-53
2023/05/15 09:00:33;;;;;;;4.20;3.90;;;25.50;44.40;;;;;;4982517;28;20500;-54
2023/05/15 09:03:02;;;;;;;3.67;3.47;;;25.40;43.50;;;;;;4985349;28;20489;-52
2023/05/15 09:05:29;;;;;;;4.67;4.30;;;25.20;44.80;;;;;;4988676;28;20438;-52
2023/05/15 09:07:57;;;;;;;4.43;4.13;;;25.30;44.20;;;;;;4991023;28;20449;-53
2023/05/15 09:10:23;;;;;;;4.20;3.90;;;25.40;43.30;;;;;;4987169;28;20438;-52
2023/05/15 09:12:51;;;;;;;4.60;4.20;;;25.20;42.90;;;;;;4985015;28;20481;-53
2023/05/15 09:15:22;;;;;;;3.63;3.33;;;25.10;43.80;;;;;;4985124;28;20194;-53
2023/05/15 09:17:49;;;;;;;4.70;4.30;;;25.30;44.90;;;;;;4982167;28;20850;-53
2023/05/15 09:20:31;;;;;;;5.77;5.20;;;25.40;44.50;;;;;;4978453;28;20540;-53
2023/05/15 09:22:58;;;;;;;8.50;5.23;;;25.60;44.40;;;;;;4983039;28;20580;-52
2023/05/15 09:25:41;;;;;;;3.83;3.53;;;25.50;44.10;;;;;;4980794;28;20473;-54
2023/05/15 09:28:25;;;;;;;4.87;4.47;;;25.80;42.90;;;;;;4984688;28;20454;-50
2023/05/15 09:31:03;;;;;;;4.70;4.20;;;26.10;42.10;;;;;;4984761;28;20980;-53
2023/05/15 09:33:36;;;;;;;4.90;4.50;;;26.40;42.40;;;;;;4987891;28;20999;-54
2023/05/15 09:36:04;;;;;;;6.40;4.57;;;26.60;41.60;;;;;;4984283;28;20814;-54
2023/05/15 09:38:32;;;;;;;5.57;5.00;;;26.70;41.40;;;;;;4984011;28;20458;-53
2023/05/15 09:41:02;;;;;;;7.90;5.57;;;26.90;41.70;;;;;;4982905;28;21026;-51
2023/05/15 09:43:32;;;;;;;5.40;4.47;;;26.90;40.40;;;;;;4984859;28;20970;-53
2023/05/15 09:45:57;;;;;;;3.83;3.53;;;26.90;40.20;;;;;;4977974;28;20456;-53
2023/05/15 09:48:23;;;;;;;4.00;3.70;;;26.90;40.60;;;;;;4984206;28;20438;-53
2023/05/15 09:50:49;;;;;;;3.70;3.50;;;27.00;40.40;;;;;;4980963;28;20194;-54
2023/05/15 09:53:14;;;;;;;5.13;3.80;;;27.10;40.30;;;;;;4990608;28;20207;-52
2023/05/15 09:55:42;;;;;;;3.80;3.53;;;26.90;40.90;;;;;;4988194;28;20210;-49
2023/05/15 09:58:12;;;;;;;6.13;3.67;;;27.00;40.40;;;;;;4986441;28;20568;-52
2023/05/15 10:00:39;;;;;;;4.30;3.93;;;27.20;40.90;;;;;;4987514;28;20808;-53
2023/05/15 10:03:06;;;;;;;3.80;3.60;;;27.10;40.10;;;;;;4986279;28;20493;-51
2023/05/15 10:05:33;;;;;;;5.23;4.20;;;26.90;39.50;;;;;;4987931;28;20860;-51
2023/05/15 10:08:00;;;;;;;5.80;4.10;;;26.70;38.60;;;;;;4990908;28;20446;-52
2023/05/15 10:10:27;;;;;;;3.97;3.70;;;26.70;38.80;;;;;;4989010;28;20817;-53
2023/05/15 10:12:54;;;;;;;6.70;3.80;;;26.50;39.30;;;;;;4987266;28;20852;-51
2023/05/15 10:15:21;;;;;;;4.13;3.83;;;26.30;39.90;;;;;;4988790;28;20864;-53
2023/05/15 10:17:48;;;;;;;3.60;3.30;;;26.30;40.40;;;;;;4986025;28;20513;-51
2023/05/15 10:20:19;;;;;;;4.10;3.80;;;26.40;41.00;;;;;;4989950;28;20448;-49
2023/05/15 10:22:49;;;;;;;3.40;3.10;;;26.50;40.20;;;;;;4985891;28;20980;-54
2023/05/15 10:25:27;;;;;;;4.10;3.77;;;26.60;40.00;;;;;;4988895;28;20445;-50
2023/05/15 10:27:53;;;;;;;4.00;3.60;;;26.70;39.20;;;;;;4990429;28;20452;-51
2023/05/15 10:30:20;;;;;;;3.73;3.47;;;26.70;40.40;;;;;;4988985;28;20441;-49
2023/05/15 10:32:47;;;;;;;3.50;3.07;;;26.90;38.70;;;;;;4985405;28;20810;-54
2023/05/15 10:35:14;;;;;;;3.93;3.73;;;27.00;40.80;;;;;;5009299;28;20440;-52
2023/05/15 10:37:39;;;;;;;3.73;3.40;;;27.20;40.30;;;;;;4989398;28;20450;-53
2023/05/15 10:40:08;;;;;;;4.03;3.63;;;27.10;39.50;;;;;;4987260;28;20780;-53
2023/05/15 10:42:34;;;;;;;5.40;3.80;;;26.90;40.70;;;;;;4984939;28;20674;-51
2023/05/15 10:45:01;;;;;;;3.40;3.10;;;26.70;40.20;;;;;;4984948;28;20454;-50
2023/05/15 10:47:29;;;;;;;5.63;3.40;;;26.70;40.30;;;;;;4991798;28;20442;-53
2023/05/15 10:49:56;;;;;;;3.87;3.60;;;26.80;40.30;;;;;;4990088;28;20441;-51
2023/05/15 10:52:22;;;;;;;3.87;3.57;;;26.90;39.20;;;;;;4987853;28;20452;-51
2023/05/15 10:54:48;;;;;;;3.67;3.47;;;26.90;39.20;;;;;;4983951;28;20897;-52
2023/05/15 10:57:14;;;;;;;3.57;3.37;;;26.80;39.50;;;;;;4987114;28;20579;-53
2023/05/15 10:59:43;;;;;;;3.50;3.20;;;26.90;39.20;;;;;;4985771;28;20301;-51
2023/05/15 11:02:23;;;;;;;3.77;3.50;;;26.80;38.00;;;;;;4990573;28;20489;-52
2023/05/15 11:04:59;;;;;;;3.63;3.33;;;26.70;37.70;;;;;;4989915;28;20466;-50
2023/05/15 11:07:26;;;;;;;3.93;3.13;;;26.80;38.30;;;;;;4978143;28;20437;-50
2023/05/15 11:09:55;;;;;;;6.53;2.90;;;27.10;39.30;;;;;;5004041;28;20500;-51
2023/05/15 11:12:22;;;;;;;4.37;3.30;;;27.40;37.30;;;;;;4986307;28;20997;-53
2023/05/15 11:14:53;;;;;;;3.47;3.23;;;27.50;35.20;;;;;;4988100;28;20465;-53
2023/05/15 11:17:21;;;;;;;3.13;2.93;;;27.50;35.40;;;;;;4991782;28;20438;-50
2023/05/15 11:19:50;;;;;;;3.70;3.40;;;27.70;37.30;;;;;;4992102;28;20530;-51
2023/05/15 11:22:18;;;;;;;3.50;3.23;;;28.00;34.40;;;;;;4992768;28;20492;-49
2023/05/15 11:25:13;;;;;;;3.37;3.17;;;28.00;35.90;;;;;;4988562;28;20461;-53
2023/05/15 11:27:44;;;;;;;4.30;3.07;;;28.30;36.10;;;;;;4984926;28;20541;-50
2023/05/15 11:30:20;;;;;;;3.40;3.20;;;28.50;34.90;;;;;;4983998;28;20448;-52
2023/05/15 11:32:46;;;;;;;3.13;2.93;;;28.50;35.40;;;;;;4999173;28;20437;-53
2023/05/15 11:35:34;;;;;;;3.73;3.43;;;28.50;34.90;;;;;;4987350;28;20453;-54
2023/05/15 11:38:09;;;;;;;3.80;3.50;;;28.60;35.40;;;;;;4981517;28;20226;-50
2023/05/15 11:40:47;;;;;;;3.63;3.33;;;28.70;35.30;;;;;;4982060;28;20464;-53
2023/05/15 11:43:29;;;;;;;3.07;2.87;;;28.70;35.10;;;;;;4986492;28;21092;-52
2023/05/15 11:46:01;;;;;;;4.07;3.20;;;28.50;33.60;;;;;;4983924;28;20947;-50
2023/05/15 11:48:32;;;;;;;4.23;3.20;;;28.50;33.30;;;;;;4988155;28;20525;-52
2023/05/15 11:50:59;;;;;;;3.00;2.80;;;28.70;33.20;;;;;;4993434;28;20464;-51
2023/05/15 11:53:26;;;;;;;3.50;3.30;;;29.00;33.00;;;;;;4986367;28;20811;-52
2023/05/15 11:55:53;;;;;;;3.23;3.03;;;29.20;34.10;;;;;;4988013;28;20434;-53
2023/05/15 11:58:20;;;;;;;3.37;3.07;;;29.10;32.60;;;;;;4988505;28;20488;-53
2023/05/15 12:00:47;;;;;;;3.07;2.87;;;29.00;32.20;;;;;;4990934;28;20525;-50
2023/05/15 12:03:14;;;;;;;3.70;3.50;;;28.90;31.90;;;;;;4987579;28;20493;-48
2023/05/15 12:05:41;;;;;;;3.83;3.53;;;28.90;33.50;;;;;;4985231;28;20945;-53
2023/05/15 12:08:11;;;;;;;2.77;2.60;;;28.90;33.30;;;;;;4988689;28;20450;-52
2023/05/15 12:10:44;;;;;;;3.43;2.43;;;28.90;32.40;;;;;;4984789;28;20442;-50
2023/05/15 12:13:14;;;;;;;2.20;2.00;;;28.40;31.30;;;;;;4988277;28;20485;-51
2023/05/15 12:15:43;;;;;;;5.47;2.17;;;28.20;32.40;;;;;;4984861;28;20484;-52
2023/05/15 12:18:09;;;;;;;2.57;2.37;;;27.50;31.80;;;;;;4989942;28;20488;-50
2023/05/15 12:20:36;;;;;;;2.97;2.77;;;27.00;31.80;;;;;;4987132;28;20548;-52
2023/05/15 12:23:03;;;;;;;2.70;2.60;;;27.00;34.90;;;;;;4991549;28;20921;-50
2023/05/15 12:25:30;;;;;;;3.30;3.00;;;27.00;33.40;;;;;;4991424;28;20426;-55
2023/05/15 12:27:57;;;;;;;3.73;2.83;;;26.90;33.30;;;;;;4989006;28;20450;-51
2023/05/15 12:30:23;;;;;;;3.27;3.03;;;26.90;33.70;;;;;;4987746;28;20503;-50
2023/05/15 12:32:49;;;;;;;3.40;2.60;;;26.90;35.10;;;;;;4990812;28;20521;-51
2023/05/15 12:35:15;;;;;;;6.17;3.20;;;26.80;35.90;;;;;;4982495;28;20960;-52
2023/05/15 12:37:41;;;;;;;3.63;3.33;;;26.90;35.30;;;;;;4990504;28;20453;-51
2023/05/15 12:40:09;;;;;;;2.80;2.50;;;26.80;34.80;;;;;;4991823;28;20484;-51
2023/05/15 12:42:53;;;;;;;2.80;2.60;;;26.80;35.10;;;;;;4994243;28;21007;-52
2023/05/15 12:45:20;;;;;;;2.77;2.20;;;26.10;33.80;;;;;;4989353;28;20530;-53
2023/05/15 12:47:48;;;;;;;5.63;2.87;;;25.70;35.30;;;;;;4986887;28;20548;-53
2023/05/15 12:50:18;;;;;;;2.83;2.50;;;25.60;37.50;;;;;;4991733;28;20449;-54